createdAt,value
2022-08-18T00:01:24.525Z,27.00
2022-08-18T00:03:56.064Z,26.90
2022-08-18T00:06:29.547Z,26.90
2022-08-18T00:09:00.294Z,26.90
2022-08-18T00:11:41.044Z,26.90
2022-08-18T00:14:21.429Z,26.80
2022-08-18T00:16:53.360Z,26.80
2022-08-18T00:19:45.582Z,26.80
2022-08-18T00:22:15.135Z,26.90
2022-08-18T00:24:47.639Z,26.80
2022-08-18T00:27:21.581Z,26.90
2022-08-18T00:29:51.175Z,26.60
2022-08-18T00:32:24.144Z,26.70
2022-08-18T00:34:53.713Z,26.50
2022-08-18T00:37:22.082Z,26.80
2022-08-18T00:39:53.030Z,26.80
2022-08-18T00:42:27.477Z,26.80
2022-08-18T00:45:02.784Z,26.70
2022-08-18T00:47:41.327Z,26.70
2022-08-18T00:50:39.432Z,26.70
2022-08-18T00:53:17.752Z,26.70
2022-08-18T00:55:53.998Z,26.70
2022-08-18T00:58:35.726Z,26.70
2022-08-18T01:01:06.970Z,26.60
2022-08-18T01:03:39.753Z,26.60
2022-08-18T01:06:32.618Z,26.60
2022-08-18T01:09:00.271Z,26.50
2022-08-18T01:11:28.590Z,26.50
2022-08-18T01:13:55.731Z,26.60
2022-08-18T01:16:53.814Z,26.40
2022-08-18T01:19:45.984Z,26.60
2022-08-18T01:22:58.304Z,26.30
2022-08-18T01:25:51.386Z,26.30
2022-08-18T01:28:20.687Z,26.30
2022-08-18T01:30:55.716Z,26.30
2022-08-18T01:33:22.732Z,26.20
2022-08-18T01:35:57.432Z,26.20
2022-08-18T01:38:26.178Z,26.10
2022-08-18T01:41:22.453Z,26.00
2022-08-18T01:43:41.451Z,26.00
2022-08-18T01:46:08.972Z,26.00
2022-08-18T01:48:38.013Z,25.90
2022-08-18T01:51:08.054Z,25.90
2022-08-18T01:53:36.524Z,25.80
2022-08-18T01:56:05.704Z,25.80
2022-08-18T01:58:34.813Z,25.80
2022-08-18T02:01:02.446Z,25.60
2022-08-18T02:03:35.967Z,25.60
2022-08-18T02:06:07.202Z,25.60
2022-08-18T02:08:35.005Z,25.60
2022-08-18T02:11:03.538Z,25.50
2022-08-18T02:13:31.204Z,25.50
2022-08-18T02:15:58.148Z,25.40
2022-08-18T02:18:47.245Z,25.30
2022-08-18T02:21:19.172Z,25.40
2022-08-18T02:23:49.231Z,25.30
2022-08-18T02:26:21.167Z,25.30
2022-08-18T02:28:48.301Z,25.30
2022-08-18T02:31:19.636Z,25.20
2022-08-18T02:33:52.064Z,25.20
2022-08-18T02:36:21.078Z,25.20
2022-08-18T02:38:54.870Z,25.10
2022-08-18T02:41:29.898Z,25.10
2022-08-18T02:43:58.651Z,25.10
2022-08-18T02:46:30.130Z,25.00
2022-08-18T02:49:01.743Z,25.10
2022-08-18T02:51:28.950Z,25.00
2022-08-18T02:53:59.771Z,25.00
2022-08-18T02:56:40.504Z,25.00
2022-08-18T02:59:16.557Z,25.00
2022-08-18T03:01:48.176Z,24.90
2022-08-18T03:04:23.007Z,24.70
2022-08-18T03:06:56.308Z,24.80
2022-08-18T03:09:23.445Z,24.80
2022-08-18T03:11:50.370Z,24.80
2022-08-18T03:14:17.484Z,24.80
2022-08-18T03:16:54.590Z,24.70
2022-08-18T03:19:28.701Z,24.50
2022-08-18T03:22:03.073Z,24.70
2022-08-18T03:24:32.329Z,24.60
2022-08-18T03:27:05.905Z,24.50
2022-08-18T03:29:34.266Z,24.50
2022-08-18T03:32:04.540Z,24.50
2022-08-18T03:34:32.394Z,24.40
2022-08-18T03:37:00.995Z,24.40
2022-08-18T03:39:29.109Z,24.40
2022-08-18T03:42:00.982Z,24.40
2022-08-18T03:44:33.027Z,24.30
2022-08-18T03:47:02.970Z,24.30
2022-08-18T03:49:33.807Z,24.30
2022-08-18T03:52:01.636Z,24.30
2022-08-18T03:54:33.443Z,24.20
2022-08-18T03:57:00.580Z,24.20
2022-08-18T03:59:30.738Z,24.10
2022-08-18T04:01:57.841Z,24.20
2022-08-18T04:04:27.632Z,24.10
2022-08-18T04:07:17.510Z,24.10
2022-08-18T04:09:45.711Z,23.80
2022-08-18T04:12:16.552Z,24.20
2022-08-18T04:14:49.187Z,24.00
2022-08-18T04:17:25.117Z,24.00
2022-08-18T04:19:54.789Z,24.00
2022-08-18T04:22:23.054Z,24.00
2022-08-18T04:24:50.632Z,24.00
2022-08-18T04:27:20.411Z,24.00
2022-08-18T04:29:47.923Z,24.00
2022-08-18T04:32:15.140Z,24.00
2022-08-18T04:34:42.408Z,24.00
2022-08-18T04:37:09.846Z,24.00
2022-08-18T04:39:37.736Z,24.10
2022-08-18T04:42:06.084Z,24.10
2022-08-18T04:44:34.689Z,24.20
2022-08-18T04:47:02.296Z,24.10
2022-08-18T04:49:30.287Z,24.20
2022-08-18T04:52:36.485Z,24.20
2022-08-18T04:55:05.894Z,24.20
2022-08-18T04:57:34.742Z,24.30
2022-08-18T05:00:05.150Z,24.30
2022-08-18T05:02:33.029Z,24.40
2022-08-18T05:05:04.388Z,24.50
2022-08-18T05:07:31.612Z,24.50
2022-08-18T05:09:58.583Z,24.50
2022-08-18T05:12:26.639Z,24.70
2022-08-18T05:14:56.683Z,24.70
2022-08-18T05:17:29.079Z,24.70
2022-08-18T05:19:58.872Z,24.80
2022-08-18T05:22:30.479Z,24.90
2022-08-18T05:24:58.878Z,25.00
2022-08-18T05:27:25.774Z,25.00
2022-08-18T05:29:52.723Z,25.40
2022-08-18T05:32:41.831Z,25.20
2022-08-18T05:35:31.802Z,25.30
2022-08-18T05:38:18.013Z,25.30
2022-08-18T05:40:49.901Z,25.50
2022-08-18T05:43:18.255Z,25.60
2022-08-18T05:45:45.301Z,25.60
2022-08-18T05:48:14.222Z,25.60
2022-08-18T05:50:41.436Z,25.80
2022-08-18T05:53:14.667Z,25.80
2022-08-18T05:56:19.999Z,25.90
2022-08-18T05:58:52.139Z,26.00
2022-08-18T06:01:25.794Z,26.10
2022-08-18T06:04:02.000Z,26.10
2022-08-18T06:06:31.309Z,26.20
2022-08-18T06:09:33.248Z,26.30
2022-08-18T06:12:17.424Z,26.40
2022-08-18T06:14:44.717Z,26.50
2022-08-18T06:17:43.803Z,26.60
2022-08-18T06:20:28.386Z,26.70
2022-08-18T06:23:32.868Z,26.90
2022-08-18T06:26:10.572Z,27.00
2022-08-18T06:29:25.138Z,27.00
2022-08-18T06:32:24.504Z,27.30
2022-08-18T06:35:04.432Z,27.50
2022-08-18T06:37:57.253Z,27.70
2022-08-18T06:40:24.807Z,27.90
2022-08-18T06:42:51.790Z,28.30
2022-08-18T06:45:24.806Z,28.20
2022-08-18T06:48:36.101Z,28.40
2022-08-18T06:51:07.465Z,28.50
2022-08-18T06:54:00.364Z,28.70
2022-08-18T06:56:39.410Z,28.70
2022-08-18T06:59:27.690Z,29.00
2022-08-18T07:02:20.034Z,29.20
2022-08-18T07:05:05.728Z,29.40
2022-08-18T07:07:40.862Z,29.60
2022-08-18T07:10:14.629Z,29.70
2022-08-18T07:13:12.731Z,29.80
2022-08-18T07:15:40.601Z,30.00
2022-08-18T07:18:10.109Z,30.10
2022-08-18T07:20:57.949Z,30.20
2022-08-18T07:23:38.549Z,30.40
2022-08-18T07:26:19.154Z,30.60
2022-08-18T07:28:49.992Z,30.60
2022-08-18T07:31:40.276Z,30.80
2022-08-18T07:34:47.922Z,30.90
2022-08-18T07:37:42.329Z,31.10
2022-08-18T07:40:36.067Z,31.20
2022-08-18T07:43:11.511Z,31.40
2022-08-18T07:45:44.485Z,31.50
2022-08-18T07:48:41.310Z,31.60
2022-08-18T07:51:43.383Z,31.80
2022-08-18T07:55:00.121Z,32.00
2022-08-18T07:57:45.220Z,32.00
2022-08-18T08:00:55.369Z,32.10
2022-08-18T08:03:35.390Z,32.20
2022-08-18T08:06:20.568Z,32.20
2022-08-18T08:09:05.925Z,32.20
2022-08-18T08:11:46.986Z,32.30
2022-08-18T08:14:16.661Z,32.40
2022-08-18T08:16:50.127Z,32.50
2022-08-18T08:19:59.417Z,32.50
2022-08-18T08:23:17.856Z,32.60
2022-08-18T08:25:52.588Z,32.70
2022-08-18T08:28:52.474Z,32.80
2022-08-18T08:31:42.448Z,33.00
2022-08-18T08:34:26.031Z,33.00
2022-08-18T08:37:04.997Z,33.20
2022-08-18T08:39:57.801Z,33.40
2022-08-18T08:43:01.349Z,33.50
2022-08-18T08:45:37.000Z,33.70
2022-08-18T08:48:21.311Z,33.90
2022-08-18T08:51:06.322Z,34.10
2022-08-18T08:53:43.861Z,34.30
2022-08-18T08:56:16.566Z,34.50
2022-08-18T08:58:49.912Z,34.70
2022-08-18T09:01:44.275Z,34.90
2022-08-18T09:05:09.981Z,35.10
2022-08-18T09:08:10.910Z,35.50
2022-08-18T09:10:59.246Z,35.90
2022-08-18T09:13:51.946Z,36.30
2022-08-18T09:16:24.591Z,36.90
2022-08-18T09:19:16.333Z,37.40
2022-08-18T09:22:37.254Z,37.80
2022-08-18T09:25:29.698Z,38.50
2022-08-18T09:28:16.417Z,39.00
2022-08-18T09:31:02.344Z,39.50
2022-08-18T09:33:42.335Z,40.00
2022-08-18T09:36:25.943Z,40.40
2022-08-18T09:43:13.069Z,41.60
2022-08-18T09:45:47.250Z,42.40
2022-08-18T09:48:20.778Z,42.90
2022-08-18T09:51:23.548Z,43.30
2022-08-18T09:53:53.780Z,43.70
2022-08-18T09:56:53.807Z,44.10
2022-08-18T09:59:45.378Z,44.40
2022-08-18T10:02:36.827Z,44.70
2022-08-18T10:05:20.239Z,45.00
2022-08-18T10:08:07.220Z,45.30
2022-08-18T10:14:04.826Z,45.90
2022-08-18T10:17:44.625Z,46.30
2022-08-18T10:20:52.361Z,46.80
2022-08-18T10:24:15.178Z,47.40
2022-08-18T10:26:54.821Z,47.80
2022-08-18T10:29:24.773Z,48.20
2022-08-18T10:31:58.546Z,48.60
2022-08-18T10:34:52.343Z,49.00
2022-08-18T10:37:42.213Z,49.50
2022-08-18T10:40:13.230Z,50.00
2022-08-18T10:42:59.932Z,50.60
2022-08-18T10:45:39.016Z,51.30
2022-08-18T10:48:24.329Z,51.90
2022-08-18T10:51:11.629Z,52.40
2022-08-18T10:53:55.443Z,53.00
2022-08-18T10:57:23.157Z,53.60
2022-08-18T11:00:02.234Z,54.30
2022-08-18T11:03:40.054Z,55.10
2022-08-18T11:06:17.952Z,55.60
2022-08-18T11:08:55.042Z,56.20
2022-08-18T11:11:33.760Z,56.40
2022-08-18T11:14:54.805Z,56.40
2022-08-18T11:18:06.418Z,56.30
2022-08-18T11:20:40.253Z,56.10
2022-08-18T11:23:17.482Z,55.90
2022-08-18T11:25:45.217Z,55.70
2022-08-18T11:28:30.294Z,55.60
2022-08-18T11:30:59.669Z,55.50
2022-08-18T11:33:28.160Z,55.50
2022-08-18T11:35:58.150Z,55.60
2022-08-18T11:41:26.366Z,55.70
2022-08-18T11:44:20.960Z,55.70
2022-08-18T11:46:52.007Z,55.70
2022-08-18T11:49:33.349Z,55.80
2022-08-18T11:52:19.843Z,55.90
2022-08-18T11:55:14.722Z,56.00
2022-08-18T12:00:47.928Z,55.90
2022-08-18T12:03:39.548Z,55.80
2022-08-18T12:06:29.843Z,55.60
2022-08-18T12:09:07.154Z,55.30
2022-08-18T12:11:41.225Z,55.10
2022-08-18T12:14:32.589Z,54.60
2022-08-18T12:17:02.953Z,54.10
2022-08-18T12:19:34.410Z,53.60
2022-08-18T12:22:14.276Z,53.10
2022-08-18T12:24:41.392Z,52.70
2022-08-18T12:27:12.247Z,52.50
2022-08-18T12:29:53.920Z,52.20
2022-08-18T12:32:56.367Z,51.90
2022-08-18T12:35:13.011Z,51.90
2022-08-18T12:38:08.270Z,51.90
2022-08-18T12:40:34.068Z,52.10
2022-08-18T12:43:01.209Z,52.40
2022-08-18T12:45:30.805Z,52.60
2022-08-18T12:47:59.906Z,52.80
2022-08-18T12:50:31.416Z,53.00
2022-08-18T12:53:02.512Z,53.20
2022-08-18T12:55:35.153Z,53.30
2022-08-18T12:58:05.331Z,53.30
2022-08-18T13:00:33.631Z,53.30
2022-08-18T13:03:01.221Z,53.30
2022-08-18T13:05:29.812Z,53.30
2022-08-18T13:08:04.626Z,53.10
2022-08-18T13:10:45.194Z,53.00
2022-08-18T13:13:17.078Z,53.00
2022-08-18T13:15:58.356Z,53.10
2022-08-18T13:18:27.314Z,53.10
2022-08-18T13:21:00.149Z,53.10
2022-08-18T13:23:28.418Z,53.10
2022-08-18T13:25:59.321Z,53.10
2022-08-18T13:28:33.470Z,53.10
2022-08-18T13:31:05.356Z,53.10
2022-08-18T13:33:34.801Z,53.20
2022-08-18T13:36:20.544Z,53.30
2022-08-18T13:38:54.708Z,53.10
2022-08-18T13:41:23.331Z,52.70
2022-08-18T13:43:50.594Z,52.40
2022-08-18T13:46:24.404Z,52.10
2022-08-18T13:48:59.893Z,51.60
2022-08-18T13:51:29.435Z,51.20
2022-08-18T13:54:17.917Z,50.70
2022-08-18T13:56:51.994Z,50.30
2022-08-18T13:59:23.645Z,49.90
2022-08-18T14:01:53.143Z,49.40
2022-08-18T14:04:23.048Z,49.00
2022-08-18T14:06:59.156Z,48.50
2022-08-18T14:09:37.115Z,47.90
2022-08-18T14:12:22.559Z,47.40
2022-08-18T14:14:55.320Z,46.70
2022-08-18T14:17:25.214Z,46.00
2022-08-18T14:20:21.551Z,45.40
2022-08-18T14:23:11.789Z,44.90
2022-08-18T14:25:59.864Z,44.40
2022-08-18T14:28:29.417Z,44.00
2022-08-18T14:30:58.977Z,43.60
2022-08-18T14:33:49.406Z,43.50
2022-08-18T14:36:17.397Z,43.50
2022-08-18T14:38:45.324Z,43.50
2022-08-18T14:41:14.171Z,43.50
2022-08-18T14:44:10.895Z,43.70
2022-08-18T14:46:33.095Z,43.80
2022-08-18T14:49:03.982Z,44.00
2022-08-18T14:51:33.618Z,44.20
2022-08-18T14:54:02.188Z,44.40
2022-08-18T14:56:29.397Z,44.70
2022-08-18T14:58:56.939Z,44.90
2022-08-18T15:01:26.573Z,44.90
2022-08-18T15:03:54.399Z,45.00
2022-08-18T15:06:23.078Z,44.90
2022-08-18T15:08:57.022Z,44.80
2022-08-18T15:11:24.957Z,44.60
2022-08-18T15:13:55.020Z,44.40
2022-08-18T15:16:27.131Z,44.10
2022-08-18T15:19:00.366Z,43.80
2022-08-18T15:21:47.841Z,43.50
2022-08-18T15:24:39.785Z,43.20
2022-08-18T15:27:10.407Z,43.00
2022-08-18T15:29:46.623Z,42.60
2022-08-18T15:32:15.240Z,42.30
2022-08-18T15:34:46.640Z,42.00
2022-08-18T15:37:20.301Z,41.80
2022-08-18T15:40:21.720Z,41.50
2022-08-18T15:43:04.126Z,41.20
2022-08-18T15:45:43.281Z,40.90
2022-08-18T15:48:26.067Z,40.60
2022-08-18T15:50:53.013Z,40.40
2022-08-18T15:53:25.492Z,40.20
2022-08-18T15:55:57.354Z,40.10
2022-08-18T15:58:26.707Z,39.80
2022-08-18T16:00:59.067Z,39.70
2022-08-18T16:03:27.588Z,39.50
2022-08-18T16:05:56.142Z,39.40
2022-08-18T16:08:25.607Z,39.10
2022-08-18T16:10:53.700Z,38.90
2022-08-18T16:13:22.116Z,38.70
2022-08-18T16:15:50.196Z,38.40
2022-08-18T16:18:21.178Z,38.10
2022-08-18T16:20:48.762Z,37.80
2022-08-18T16:23:19.861Z,37.60
2022-08-18T16:25:47.027Z,37.20
2022-08-18T16:28:13.897Z,36.90
2022-08-18T16:30:41.613Z,36.30
2022-08-18T16:33:08.768Z,35.60
2022-08-18T16:35:37.274Z,34.70
2022-08-18T16:38:09.097Z,33.70
2022-08-18T16:40:37.635Z,32.70
2022-08-18T16:43:07.224Z,31.80
2022-08-18T16:45:37.587Z,31.00
2022-08-18T16:48:07.433Z,30.30
2022-08-18T16:50:35.725Z,29.70
2022-08-18T16:53:02.620Z,29.10
2022-08-18T16:55:30.634Z,28.70
2022-08-18T16:58:16.365Z,28.10
2022-08-18T17:01:02.815Z,27.90
2022-08-18T17:03:48.258Z,27.50
2022-08-18T17:06:19.093Z,27.10
2022-08-18T17:08:47.039Z,26.80
2022-08-18T17:11:18.875Z,26.50
2022-08-18T17:13:49.727Z,26.20
2022-08-18T17:16:19.892Z,26.00
2022-08-18T17:18:48.156Z,25.80
2022-08-18T17:21:20.182Z,25.70
2022-08-18T17:23:47.895Z,25.60
2022-08-18T17:26:42.781Z,25.50
2022-08-18T17:29:22.857Z,25.30
2022-08-18T17:32:03.713Z,25.30
2022-08-18T17:34:41.950Z,25.10
2022-08-18T17:37:14.445Z,25.20
2022-08-18T17:40:02.341Z,24.90
2022-08-18T17:42:31.260Z,24.80
2022-08-18T17:45:07.642Z,25.00
2022-08-18T17:48:03.290Z,24.70
2022-08-18T17:51:00.914Z,24.60
2022-08-18T17:53:31.496Z,24.40
2022-08-18T17:56:08.081Z,24.50
2022-08-18T17:59:42.811Z,24.40
2022-08-18T18:02:31.115Z,24.40
2022-08-18T18:05:11.036Z,24.40
2022-08-18T18:07:53.116Z,24.40
2022-08-18T18:10:25.845Z,24.30
2022-08-18T18:13:24.597Z,24.30
2022-08-18T18:15:55.747Z,24.30
2022-08-18T18:18:34.292Z,24.20
2022-08-18T18:21:21.455Z,24.20
2022-08-18T18:24:14.226Z,24.20
2022-08-18T18:26:47.956Z,24.20
2022-08-18T18:29:37.391Z,24.20
2022-08-18T18:32:30.573Z,24.20
2022-08-18T18:35:23.795Z,24.10
2022-08-18T18:38:24.333Z,24.10
2022-08-18T18:41:02.455Z,24.20
2022-08-18T18:43:47.187Z,24.10
2022-08-18T18:46:29.772Z,24.10
2022-08-18T18:49:23.368Z,24.10
2022-08-18T18:51:55.970Z,24.10
2022-08-18T18:55:01.721Z,24.10
2022-08-18T18:58:15.874Z,24.10
2022-08-18T19:00:53.607Z,24.10
2022-08-18T19:03:41.410Z,24.10
2022-08-18T19:06:17.389Z,24.10
2022-08-18T19:09:06.634Z,24.20
2022-08-18T19:11:43.181Z,24.10
2022-08-18T19:14:28.437Z,24.10
2022-08-18T19:17:13.298Z,24.20
2022-08-18T19:19:59.625Z,24.10
2022-08-18T19:22:38.773Z,24.30
2022-08-18T19:25:19.526Z,24.20
2022-08-18T19:27:54.125Z,24.20
2022-08-18T19:30:22.072Z,24.20
2022-08-18T19:33:03.088Z,24.20
2022-08-18T19:35:58.716Z,24.30
2022-08-18T19:38:36.749Z,24.40
2022-08-18T19:41:39.563Z,24.30
2022-08-18T19:44:35.489Z,24.40
2022-08-18T19:47:33.617Z,24.40
2022-08-18T19:50:17.040Z,24.40
2022-08-18T19:53:34.458Z,24.40
2022-08-18T19:56:27.909Z,24.40
2022-08-18T19:59:24.074Z,24.40
2022-08-18T20:02:12.380Z,24.50
2022-08-18T20:05:20.685Z,24.40
2022-08-18T20:08:12.777Z,24.40
2022-08-18T20:11:21.298Z,24.40
2022-08-18T20:14:13.589Z,24.40
2022-08-18T20:16:45.080Z,24.40
2022-08-18T20:19:57.456Z,24.40
2022-08-18T20:22:25.059Z,24.40
2022-08-18T20:25:05.879Z,24.40
2022-08-18T20:27:42.871Z,24.40
2022-08-18T20:30:26.974Z,24.40
2022-08-18T20:33:18.125Z,24.40
2022-08-18T20:36:03.399Z,24.40
2022-08-18T20:38:53.826Z,24.50
2022-08-18T20:41:24.788Z,24.40
2022-08-18T20:44:29.504Z,24.40
2022-08-18T20:47:21.106Z,24.40
2022-08-18T20:50:23.369Z,24.50
2022-08-18T20:53:26.279Z,24.50
2022-08-18T20:56:43.926Z,24.50
2022-08-18T20:59:21.853Z,24.50
2022-08-18T21:02:07.246Z,24.50
2022-08-18T21:04:49.283Z,24.50
2022-08-18T21:08:17.739Z,24.50
2022-08-18T21:10:49.780Z,24.50
2022-08-18T21:13:41.619Z,24.50
2022-08-18T21:16:38.308Z,24.50
2022-08-18T21:19:24.999Z,24.50
2022-08-18T21:21:58.844Z,24.50
2022-08-18T21:24:43.045Z,24.50
2022-08-18T21:27:31.065Z,24.50
2022-08-18T21:30:04.570Z,24.40
2022-08-18T21:32:36.265Z,24.40
2022-08-18T21:35:26.620Z,24.40
2022-08-18T21:38:11.781Z,24.40
2022-08-18T21:40:47.263Z,24.30
2022-08-18T21:43:55.503Z,24.10
2022-08-18T21:46:30.422Z,24.30
2022-08-18T21:49:02.472Z,24.20
2022-08-18T21:51:37.122Z,24.30
2022-08-18T21:54:04.569Z,24.30
2022-08-18T21:56:36.175Z,24.40
2022-08-18T21:59:19.149Z,24.30
2022-08-18T22:01:54.484Z,24.50
2022-08-18T22:04:26.744Z,24.40
2022-08-18T22:06:59.206Z,24.30
2022-08-18T22:09:49.511Z,24.40
2022-08-18T22:12:49.395Z,24.40
2022-08-18T22:15:44.218Z,24.40
2022-08-18T22:18:17.821Z,24.40
2022-08-18T22:20:58.930Z,24.50
2022-08-18T22:23:55.750Z,24.50
2022-08-18T22:26:30.802Z,24.50
2022-08-18T22:29:07.436Z,24.50
2022-08-18T22:31:45.284Z,24.50
2022-08-18T22:34:27.158Z,24.50
2022-08-18T22:37:19.212Z,24.50
2022-08-18T22:39:54.434Z,24.50
2022-08-18T22:42:26.365Z,24.50
2022-08-18T22:44:53.657Z,24.60
2022-08-18T22:47:20.867Z,24.60
2022-08-18T22:49:48.037Z,24.60
2022-08-18T22:52:31.145Z,24.60
2022-08-18T22:55:00.587Z,24.60
2022-08-18T22:57:34.448Z,24.60
2022-08-18T23:00:12.192Z,24.60
2022-08-18T23:02:40.395Z,24.60
2022-08-18T23:05:07.828Z,24.60
2022-08-18T23:07:35.198Z,24.60
2022-08-18T23:10:03.423Z,24.60
2022-08-18T23:12:35.191Z,24.60
2022-08-18T23:15:09.842Z,24.60
2022-08-18T23:17:37.321Z,24.60
2022-08-18T23:20:08.715Z,24.50
2022-08-18T23:22:39.741Z,24.60
2022-08-18T23:25:09.453Z,24.60
2022-08-18T23:27:36.879Z,24.50
2022-08-18T23:30:05.256Z,24.50
2022-08-18T23:32:33.362Z,24.50
2022-08-18T23:35:00.821Z,24.50
2022-08-18T23:37:28.992Z,24.50
2022-08-18T23:39:56.101Z,24.50
2022-08-18T23:42:23.900Z,24.50
2022-08-18T23:44:50.829Z,24.50
2022-08-18T23:47:19.638Z,24.50
2022-08-18T23:49:46.855Z,24.50
2022-08-18T23:52:13.876Z,24.50
2022-08-18T23:54:40.985Z,24.50
2022-08-18T23:57:07.875Z,24.50
2022-08-18T23:59:34.963Z,24.50
